createdAt,value
2024-02-18T00:00:43.433Z,25.29
2024-02-18T00:01:43.355Z,25.29
2024-02-18T00:02:43.366Z,25.29
2024-02-18T00:03:43.456Z,25.27
2024-02-18T00:04:43.524Z,25.29
2024-02-18T00:05:43.446Z,25.30
2024-02-18T00:06:43.461Z,25.29
2024-02-18T00:07:43.342Z,25.27
2024-02-18T00:08:43.346Z,25.27
2024-02-18T00:09:43.428Z,25.30
2024-02-18T00:10:43.372Z,25.29
2024-02-18T00:11:43.350Z,25.27
2024-02-18T00:12:43.366Z,25.30
2024-02-18T00:13:43.417Z,25.27
2024-02-18T00:14:43.405Z,25.31
2024-02-18T00:15:43.433Z,25.27
2024-02-18T00:16:43.352Z,25.27
2024-02-18T00:17:43.406Z,25.27
2024-02-18T00:18:43.576Z,25.30
2024-02-18T00:19:43.832Z,25.29
2024-02-18T00:20:43.374Z,25.27
2024-02-18T00:21:43.453Z,25.29
2024-02-18T00:22:43.386Z,25.29
2024-02-18T00:23:43.417Z,25.27
2024-02-18T00:24:43.467Z,25.31
2024-02-18T00:25:43.363Z,25.29
2024-02-18T00:26:54.225Z,25.29
2024-02-18T00:27:44.390Z,25.31
2024-02-18T00:28:43.399Z,25.27
2024-02-18T00:29:43.402Z,25.29
2024-02-18T00:30:43.419Z,25.30
2024-02-18T00:31:43.396Z,25.27
2024-02-18T00:32:43.444Z,25.29
2024-02-18T00:33:43.590Z,25.27
2024-02-18T00:34:43.581Z,25.29
2024-02-18T00:35:43.427Z,25.30
2024-02-18T00:36:43.423Z,25.29
2024-02-18T00:37:43.408Z,25.31
2024-02-18T00:38:43.477Z,25.29
2024-02-18T00:39:43.765Z,25.33
2024-02-18T00:40:43.567Z,25.27
2024-02-18T00:41:43.684Z,25.30
2024-02-18T00:42:43.745Z,25.30
2024-02-18T00:43:43.700Z,25.27
2024-02-18T00:44:43.825Z,25.27
2024-02-18T00:45:44.001Z,25.29
2024-02-18T00:46:50.869Z,25.30
2024-02-18T00:47:44.957Z,25.29
2024-02-18T00:48:44.037Z,25.30
2024-02-18T00:49:44.266Z,25.31
2024-02-18T00:50:43.968Z,25.29
2024-02-18T00:51:43.949Z,25.29
2024-02-18T00:52:43.925Z,25.27
2024-02-18T00:53:43.929Z,25.29
2024-02-18T00:54:43.957Z,25.26
2024-02-18T00:55:43.933Z,25.30
2024-02-18T00:56:43.932Z,25.29
2024-02-18T00:57:44.080Z,25.30
2024-02-18T00:58:43.992Z,25.29
2024-02-18T00:59:44.070Z,25.29
2024-02-18T01:00:44.140Z,25.27
2024-02-18T01:01:44.325Z,25.30
2024-02-18T01:02:44.225Z,25.29
2024-02-18T01:03:44.306Z,25.29
2024-02-18T01:04:44.313Z,25.29
2024-02-18T01:05:44.410Z,25.27
2024-02-18T01:06:44.474Z,25.29
2024-02-18T01:07:44.590Z,25.30
2024-02-18T01:08:44.536Z,25.29
2024-02-18T01:09:44.818Z,25.30
2024-02-18T01:10:44.668Z,25.29
2024-02-18T01:11:44.770Z,25.30
2024-02-18T01:12:44.815Z,25.29
2024-02-18T01:13:44.848Z,25.33
2024-02-18T01:14:44.887Z,25.27
2024-02-18T01:15:44.961Z,25.29
2024-02-18T01:16:45.018Z,25.30
2024-02-18T01:17:45.114Z,25.30
2024-02-18T01:18:45.448Z,25.27
2024-02-18T01:19:45.264Z,25.27
2024-02-18T01:20:45.247Z,25.29
2024-02-18T01:21:45.322Z,25.27
2024-02-18T01:22:45.356Z,25.29
2024-02-18T01:23:45.444Z,25.27
2024-02-18T01:24:45.478Z,25.29
2024-02-18T01:25:45.533Z,25.31
2024-02-18T01:26:45.559Z,25.30
2024-02-18T01:27:45.658Z,25.31
2024-02-18T01:28:45.712Z,25.30
2024-02-18T01:29:45.766Z,25.30
2024-02-18T01:30:45.917Z,25.30
2024-02-18T01:31:45.870Z,25.30
2024-02-18T01:32:45.924Z,25.30
2024-02-18T01:33:46.012Z,25.30
2024-02-18T01:34:46.079Z,25.27
2024-02-18T01:35:46.080Z,25.29
2024-02-18T01:36:46.216Z,25.30
2024-02-18T01:37:46.183Z,25.30
2024-02-18T01:38:46.250Z,25.29
2024-02-18T01:39:46.322Z,25.27
2024-02-18T01:40:46.364Z,25.27
2024-02-18T01:41:46.407Z,25.27
2024-02-18T01:42:46.515Z,25.29
2024-02-18T01:43:46.541Z,25.27
2024-02-18T01:44:46.591Z,25.30
2024-02-18T01:45:46.690Z,25.30
2024-02-18T01:46:46.726Z,25.30
2024-02-18T01:47:46.821Z,25.27
2024-02-18T01:48:47.049Z,25.29
2024-02-18T01:49:47.276Z,25.30
2024-02-18T01:50:47.088Z,25.27
2024-02-18T01:51:47.042Z,25.29
2024-02-18T01:52:47.035Z,25.30
2024-02-18T01:53:47.060Z,25.29
2024-02-18T01:54:47.173Z,25.30
2024-02-18T01:55:47.190Z,25.29
2024-02-18T01:56:47.263Z,25.27
2024-02-18T01:57:47.377Z,25.27
2024-02-18T01:58:47.358Z,25.30
2024-02-18T01:59:47.449Z,25.30
2024-02-18T02:00:47.580Z,25.31
2024-02-18T02:01:47.582Z,25.27
2024-02-18T02:02:47.588Z,25.29
2024-02-18T02:03:47.713Z,25.26
2024-02-18T02:04:47.738Z,25.27
2024-02-18T02:05:47.793Z,25.29
2024-02-18T02:06:47.852Z,25.26
2024-02-18T02:07:47.845Z,25.29
2024-02-18T02:08:47.898Z,25.29
2024-02-18T02:09:47.986Z,25.27
2024-02-18T02:10:48.074Z,25.30
2024-02-18T02:11:48.061Z,25.27
2024-02-18T02:12:48.143Z,25.29
2024-02-18T02:13:48.162Z,25.27
2024-02-18T02:14:48.248Z,25.29
2024-02-18T02:15:48.411Z,25.27
2024-02-18T02:16:48.342Z,25.27
2024-02-18T02:17:48.435Z,25.29
2024-02-18T02:18:48.558Z,25.30
2024-02-18T02:19:48.823Z,25.30
2024-02-18T02:20:48.588Z,25.27
2024-02-18T02:21:48.711Z,25.29
2024-02-18T02:22:48.746Z,25.29
2024-02-18T02:23:48.769Z,25.27
2024-02-18T02:24:48.864Z,25.30
2024-02-18T02:25:48.868Z,25.30
2024-02-18T02:26:48.939Z,25.30
2024-02-18T02:27:49.004Z,25.30
2024-02-18T02:28:49.070Z,25.27
2024-02-18T02:29:49.120Z,25.30
2024-02-18T02:30:49.821Z,25.29
2024-02-18T02:31:49.223Z,25.29
2024-02-18T02:32:49.376Z,25.27
2024-02-18T02:33:49.374Z,25.27
2024-02-18T02:34:49.442Z,25.30
2024-02-18T02:35:49.436Z,25.27
2024-02-18T02:36:49.565Z,25.30
2024-02-18T02:37:49.570Z,25.30
2024-02-18T02:38:49.663Z,25.29
2024-02-18T02:39:49.698Z,25.29
2024-02-18T02:40:49.745Z,25.30
2024-02-18T02:41:49.798Z,25.26
2024-02-18T02:42:49.873Z,25.29
2024-02-18T02:43:49.909Z,25.29
2024-02-18T02:44:49.985Z,25.30
2024-02-18T02:45:50.073Z,25.26
2024-02-18T02:46:50.111Z,25.27
2024-02-18T02:47:50.219Z,25.26
2024-02-18T02:48:50.263Z,25.30
2024-02-18T02:49:50.335Z,25.29
2024-02-18T02:50:50.318Z,25.29
2024-02-18T02:51:50.421Z,25.27
2024-02-18T02:52:50.409Z,25.29
2024-02-18T02:53:50.490Z,25.30
2024-02-18T02:54:50.602Z,25.29
2024-02-18T02:55:50.607Z,25.30
2024-02-18T02:56:50.652Z,25.30
2024-02-18T02:57:50.729Z,25.27
2024-02-18T02:58:50.784Z,25.29
2024-02-18T02:59:50.871Z,25.27
2024-02-18T03:00:51.023Z,25.30
2024-02-18T03:01:51.017Z,25.29
2024-02-18T03:02:51.007Z,25.29
2024-02-18T03:03:51.126Z,25.27
2024-02-18T03:04:52.343Z,25.29
2024-02-18T03:05:51.174Z,25.29
2024-02-18T03:06:52.753Z,25.27
2024-02-18T03:07:52.754Z,25.27
2024-02-18T03:08:51.866Z,25.31
2024-02-18T03:09:51.235Z,25.30
2024-02-18T03:10:52.180Z,25.29
2024-02-18T03:11:51.263Z,25.30
2024-02-18T03:12:51.260Z,25.29
2024-02-18T03:13:51.173Z,25.29
2024-02-18T03:14:51.177Z,25.29
2024-02-18T03:15:51.255Z,25.27
2024-02-18T03:16:51.793Z,25.29
2024-02-18T03:17:51.263Z,25.27
2024-02-18T03:18:51.371Z,25.29
2024-02-18T03:19:52.380Z,25.30
2024-02-18T03:20:53.212Z,25.27
2024-02-18T03:21:51.485Z,25.29
2024-02-18T03:22:51.419Z,25.26
2024-02-18T03:23:51.377Z,25.27
2024-02-18T03:24:53.129Z,25.27
2024-02-18T03:25:52.375Z,25.29
2024-02-18T03:26:51.403Z,25.27
2024-02-18T03:27:51.454Z,25.26
2024-02-18T03:28:51.420Z,25.29
2024-02-18T03:29:51.428Z,25.27
2024-02-18T03:30:51.473Z,25.29
2024-02-18T03:31:51.402Z,25.30
2024-02-18T03:32:51.476Z,25.29
2024-02-18T03:33:52.392Z,25.29
2024-02-18T03:34:52.483Z,25.27
2024-02-18T03:35:51.602Z,25.30
2024-02-18T03:36:51.635Z,25.29
2024-02-18T03:37:51.688Z,25.27
2024-02-18T03:38:51.822Z,25.29
2024-02-18T03:39:51.881Z,25.30
2024-02-18T03:40:51.904Z,25.27
2024-02-18T03:41:51.947Z,25.30
2024-02-18T03:42:51.988Z,25.27
2024-02-18T03:43:52.720Z,25.30
2024-02-18T03:44:52.116Z,25.27
2024-02-18T03:45:52.205Z,25.27
2024-02-18T03:46:52.238Z,25.29
2024-02-18T03:47:52.464Z,25.29
2024-02-18T03:48:52.861Z,25.29
2024-02-18T03:49:52.608Z,25.27
2024-02-18T03:50:52.472Z,25.30
2024-02-18T03:51:52.602Z,25.29
2024-02-18T03:52:52.579Z,25.27
2024-02-18T03:53:52.624Z,25.30
2024-02-18T03:54:52.742Z,25.29
2024-02-18T03:55:52.735Z,25.29
2024-02-18T03:56:52.799Z,25.27
2024-02-18T03:57:52.947Z,25.29
2024-02-18T03:58:52.937Z,25.29
2024-02-18T03:59:53.009Z,25.27
2024-02-18T04:00:53.079Z,25.26
2024-02-18T04:01:53.153Z,25.30
2024-02-18T04:02:53.164Z,25.27
2024-02-18T04:03:53.446Z,25.27
2024-02-18T04:04:53.355Z,25.26
2024-02-18T04:05:54.272Z,25.29
2024-02-18T04:06:54.302Z,25.30
2024-02-18T04:07:53.469Z,25.29
2024-02-18T04:08:53.473Z,25.29
2024-02-18T04:09:53.643Z,25.29
2024-02-18T04:10:53.631Z,25.29
2024-02-18T04:11:53.793Z,25.29
2024-02-18T04:12:53.860Z,25.30
2024-02-18T04:13:53.812Z,25.27
2024-02-18T04:14:54.764Z,25.30
2024-02-18T04:15:54.804Z,25.29
2024-02-18T04:16:53.993Z,25.30
2024-02-18T04:17:54.119Z,25.29
2024-02-18T04:18:54.202Z,25.27
2024-02-18T04:19:54.264Z,25.27
2024-02-18T04:20:54.006Z,25.27
2024-02-18T04:21:54.093Z,25.26
2024-02-18T04:22:54.759Z,25.29
2024-02-18T04:23:54.046Z,25.29
2024-02-18T04:24:54.046Z,25.27
2024-02-18T04:25:54.025Z,25.29
2024-02-18T04:26:54.016Z,25.29
2024-02-18T04:27:54.109Z,25.30
2024-02-18T04:28:54.101Z,25.27
2024-02-18T04:29:54.772Z,25.29
2024-02-18T04:31:02.111Z,25.26
2024-02-18T04:32:01.986Z,25.27
2024-02-18T04:33:02.127Z,25.29
2024-02-18T04:34:02.077Z,25.27
2024-02-18T04:35:02.210Z,25.26
2024-02-18T04:36:01.955Z,25.26
2024-02-18T04:37:02.114Z,25.27
2024-02-18T04:38:02.010Z,25.27
2024-02-18T04:39:02.085Z,25.30
2024-02-18T04:40:02.212Z,25.27
2024-02-18T04:41:02.235Z,25.30
2024-02-18T04:42:02.266Z,25.30
2024-02-18T04:43:02.428Z,25.27
2024-02-18T04:44:02.412Z,25.27
2024-02-18T04:45:02.465Z,25.29
2024-02-18T04:46:02.582Z,25.26
2024-02-18T04:47:02.591Z,25.30
2024-02-18T04:48:02.757Z,25.27
2024-02-18T04:49:03.678Z,25.30
2024-02-18T04:50:02.746Z,25.27
2024-02-18T04:51:02.789Z,25.29
2024-02-18T04:52:02.936Z,25.27
2024-02-18T04:53:02.938Z,25.30
2024-02-18T04:54:02.961Z,25.29
2024-02-18T04:55:03.115Z,25.27
2024-02-18T04:56:03.106Z,25.29
2024-02-18T04:57:03.159Z,25.27
2024-02-18T04:58:03.312Z,25.29
2024-02-18T04:59:03.293Z,25.29
2024-02-18T05:00:03.593Z,25.29
2024-02-18T05:01:03.544Z,25.30
2024-02-18T05:02:03.478Z,25.29
2024-02-18T05:03:03.593Z,25.29
2024-02-18T05:04:03.654Z,25.30
2024-02-18T05:05:03.722Z,25.29
2024-02-18T05:06:03.739Z,25.29
2024-02-18T05:07:04.049Z,25.30
2024-02-18T05:08:03.833Z,25.29
2024-02-18T05:09:03.897Z,25.29
2024-02-18T05:10:03.997Z,25.27
2024-02-18T05:11:04.022Z,25.30
2024-02-18T05:12:04.088Z,25.27
2024-02-18T05:13:04.213Z,25.31
2024-02-18T05:14:04.171Z,25.31
2024-02-18T05:15:04.598Z,25.30
2024-02-18T05:16:05.323Z,25.30
2024-02-18T05:17:04.359Z,25.29
2024-02-18T05:18:04.456Z,25.30
2024-02-18T05:19:04.521Z,25.31
2024-02-18T05:20:04.521Z,25.27
2024-02-18T05:21:04.589Z,25.29
2024-02-18T05:22:04.697Z,25.30
2024-02-18T05:23:04.739Z,25.27
2024-02-18T05:24:04.785Z,25.27
2024-02-18T05:25:04.892Z,25.27
2024-02-18T05:26:04.868Z,25.29
2024-02-18T05:27:04.929Z,25.30
2024-02-18T05:28:05.073Z,25.31
2024-02-18T05:29:05.052Z,25.30
2024-02-18T05:30:05.132Z,25.27
2024-02-18T05:31:05.251Z,25.29
2024-02-18T05:32:05.206Z,25.27
2024-02-18T05:33:05.348Z,25.27
2024-02-18T05:34:05.497Z,25.31
2024-02-18T05:35:07.550Z,25.30
2024-02-18T05:36:05.443Z,25.29
2024-02-18T05:37:05.455Z,25.26
2024-02-18T05:38:05.437Z,25.29
2024-02-18T05:39:05.385Z,25.30
2024-02-18T05:40:05.457Z,25.29
2024-02-18T05:41:05.420Z,25.29
2024-02-18T05:42:05.392Z,25.27
2024-02-18T05:43:05.467Z,25.29
2024-02-18T05:44:05.417Z,25.29
2024-02-18T05:45:05.514Z,25.29
2024-02-18T05:46:05.511Z,25.30
2024-02-18T05:47:05.433Z,25.27
2024-02-18T05:48:05.549Z,25.29
2024-02-18T05:49:05.480Z,25.30
2024-02-18T05:50:05.626Z,25.29
2024-02-18T05:51:06.438Z,25.29
2024-02-18T05:52:05.559Z,25.30
2024-02-18T05:53:05.443Z,25.29
2024-02-18T05:54:05.483Z,25.30
2024-02-18T05:55:05.786Z,25.29
2024-02-18T05:56:05.466Z,25.30
2024-02-18T05:57:05.437Z,25.31
2024-02-18T05:58:05.587Z,25.30
2024-02-18T05:59:05.448Z,25.31
2024-02-18T06:00:05.477Z,25.31
2024-02-18T06:01:05.851Z,25.29
2024-02-18T06:02:07.118Z,25.30
2024-02-18T06:03:06.078Z,25.27
2024-02-18T06:04:05.593Z,25.30
2024-02-18T06:05:06.540Z,25.30
2024-02-18T06:06:05.544Z,25.30
2024-02-18T06:07:05.531Z,25.31
2024-02-18T06:08:05.519Z,25.30
2024-02-18T06:09:05.496Z,25.29
2024-02-18T06:10:05.656Z,25.29
2024-02-18T06:11:05.645Z,25.29
2024-02-18T06:12:05.586Z,25.29
2024-02-18T06:13:05.596Z,25.29
2024-02-18T06:14:05.521Z,25.29
2024-02-18T06:15:05.521Z,25.29
2024-02-18T06:16:05.652Z,25.30
2024-02-18T06:17:05.639Z,25.29
2024-02-18T06:18:06.705Z,25.27
2024-02-18T06:19:07.608Z,25.29
2024-02-18T06:20:06.886Z,25.29
2024-02-18T06:21:05.686Z,25.26
2024-02-18T06:22:05.853Z,25.27
2024-02-18T06:23:05.707Z,25.29
2024-02-18T06:24:05.733Z,25.27
2024-02-18T06:25:05.749Z,25.30
2024-02-18T06:26:05.730Z,25.30
2024-02-18T06:27:05.728Z,25.29
2024-02-18T06:28:05.759Z,25.29
2024-02-18T06:29:05.726Z,25.30
2024-02-18T06:30:05.737Z,25.30
2024-02-18T06:31:05.928Z,25.29
2024-02-18T06:32:05.717Z,25.29
2024-02-18T06:33:05.759Z,25.27
2024-02-18T06:34:05.967Z,25.31
2024-02-18T06:35:05.780Z,25.31
2024-02-18T06:36:05.727Z,25.30
2024-02-18T06:37:05.812Z,25.30
2024-02-18T06:38:05.743Z,25.29
2024-02-18T06:39:05.756Z,25.31
2024-02-18T06:40:05.943Z,25.30
2024-02-18T06:41:05.774Z,25.31
2024-02-18T06:42:05.842Z,25.29
2024-02-18T06:43:05.996Z,25.30
2024-02-18T06:44:05.784Z,25.27
2024-02-18T06:45:05.852Z,25.27
2024-02-18T06:46:06.725Z,25.29
2024-02-18T06:47:05.965Z,25.31
2024-02-18T06:48:06.112Z,25.31
2024-02-18T06:49:06.144Z,25.29
2024-02-18T06:50:06.219Z,25.29
2024-02-18T06:51:06.203Z,25.30
2024-02-18T06:52:06.328Z,25.30
2024-02-18T06:53:06.325Z,25.30
2024-02-18T06:54:06.374Z,25.31
2024-02-18T06:55:06.562Z,25.30
2024-02-18T06:56:06.500Z,25.30
2024-02-18T06:57:06.545Z,25.31
2024-02-18T06:58:06.665Z,25.30
2024-02-18T06:59:06.684Z,25.30
2024-02-18T07:00:06.744Z,25.31
2024-02-18T07:01:06.894Z,25.30
2024-02-18T07:02:06.873Z,25.31
2024-02-18T07:03:06.869Z,25.31
2024-02-18T07:04:07.032Z,25.29
2024-02-18T07:05:07.076Z,25.31
2024-02-18T07:06:07.650Z,25.31
2024-02-18T07:07:07.179Z,25.30
2024-02-18T07:08:07.143Z,25.31
2024-02-18T07:09:07.167Z,25.31
2024-02-18T07:10:07.472Z,25.33
2024-02-18T07:11:07.309Z,25.30
2024-02-18T07:12:07.368Z,25.30
2024-02-18T07:13:07.453Z,25.33
2024-02-18T07:14:07.505Z,25.31
2024-02-18T07:15:07.571Z,25.30
2024-02-18T07:16:07.638Z,25.30
2024-02-18T07:17:07.627Z,25.31
2024-02-18T07:18:07.845Z,25.33
2024-02-18T07:19:07.795Z,25.33
2024-02-18T07:20:07.874Z,25.31
2024-02-18T07:21:07.846Z,25.31
2024-02-18T07:22:08.074Z,25.33
2024-02-18T07:23:07.978Z,25.30
2024-02-18T07:24:08.095Z,25.33
2024-02-18T07:25:08.178Z,25.33
2024-02-18T07:26:08.143Z,25.33
2024-02-18T07:27:08.198Z,25.33
2024-02-18T07:28:08.332Z,25.33
2024-02-18T07:29:08.282Z,25.31
2024-02-18T07:30:08.368Z,25.33
2024-02-18T07:31:08.547Z,25.33
2024-02-18T07:32:08.441Z,25.33
2024-02-18T07:33:08.594Z,25.31
2024-02-18T07:34:08.630Z,25.33
2024-02-18T07:35:08.673Z,25.33
2024-02-18T07:36:09.655Z,25.33
2024-02-18T07:37:08.804Z,25.33
2024-02-18T07:38:11.645Z,25.34
2024-02-18T07:39:08.733Z,25.33
2024-02-18T07:40:08.805Z,25.31
2024-02-18T07:41:08.715Z,25.33
2024-02-18T07:42:08.702Z,25.34
2024-02-18T07:43:08.834Z,25.36
2024-02-18T07:44:08.764Z,25.36
2024-02-18T07:45:08.754Z,25.36
2024-02-18T07:46:08.772Z,25.34
2024-02-18T07:47:08.825Z,25.36
2024-02-18T07:48:08.785Z,25.36
2024-02-18T07:49:08.772Z,25.34
2024-02-18T07:50:08.893Z,25.37
2024-02-18T07:51:08.743Z,25.36
2024-02-18T07:52:09.709Z,25.38
2024-02-18T07:53:08.760Z,25.40
2024-02-18T07:54:08.759Z,25.38
2024-02-18T07:55:08.970Z,25.37
2024-02-18T07:56:08.767Z,25.40
2024-02-18T07:57:08.776Z,25.36
2024-02-18T07:58:08.826Z,25.38
2024-02-18T07:59:08.731Z,25.38
2024-02-18T08:00:08.795Z,25.37
2024-02-18T08:01:08.891Z,25.38
2024-02-18T08:02:08.817Z,25.37
2024-02-18T08:03:08.879Z,25.38
2024-02-18T08:04:08.794Z,25.40
2024-02-18T08:05:08.850Z,25.38
2024-02-18T08:06:08.831Z,25.38
2024-02-18T08:07:08.819Z,25.40
2024-02-18T08:08:08.767Z,25.41
2024-02-18T08:09:08.990Z,25.41
2024-02-18T08:10:09.314Z,25.41
2024-02-18T08:11:08.781Z,25.41
2024-02-18T08:12:08.887Z,25.41
2024-02-18T08:13:08.824Z,25.42
2024-02-18T08:14:08.779Z,25.42
2024-02-18T08:15:08.819Z,25.41
2024-02-18T08:16:09.686Z,25.44
2024-02-18T08:17:08.762Z,25.40
2024-02-18T08:18:08.867Z,25.42
2024-02-18T08:19:09.926Z,25.44
2024-02-18T08:20:08.889Z,25.42
2024-02-18T08:21:08.927Z,25.45
2024-02-18T08:22:09.211Z,25.51
2024-02-18T08:23:09.153Z,25.52
2024-02-18T08:24:09.058Z,25.54
2024-02-18T08:25:09.163Z,25.55
2024-02-18T08:26:09.705Z,25.57
2024-02-18T08:27:09.139Z,25.58
2024-02-18T08:28:09.353Z,25.60
2024-02-18T08:29:09.236Z,25.64
2024-02-18T08:30:09.362Z,25.67
2024-02-18T08:31:09.332Z,25.65
2024-02-18T08:32:09.329Z,25.70
2024-02-18T08:33:09.396Z,25.71
2024-02-18T08:34:09.462Z,25.72
2024-02-18T08:35:09.670Z,25.72
2024-02-18T08:36:09.404Z,25.75
2024-02-18T08:37:09.541Z,25.71
2024-02-18T08:38:09.558Z,25.77
2024-02-18T08:39:09.469Z,25.78
2024-02-18T08:40:09.649Z,25.82
2024-02-18T08:41:09.606Z,25.79
2024-02-18T08:42:09.646Z,25.81
2024-02-18T08:43:09.770Z,25.81
2024-02-18T08:44:09.690Z,25.84
2024-02-18T08:45:09.698Z,25.81
2024-02-18T08:46:09.813Z,25.85
2024-02-18T08:47:09.677Z,25.85
2024-02-18T08:48:09.922Z,25.85
2024-02-18T08:49:09.850Z,25.84
2024-02-18T08:50:09.855Z,25.82
2024-02-18T08:51:10.034Z,25.84
2024-02-18T08:52:10.098Z,25.84
2024-02-18T08:53:09.787Z,25.82
2024-02-18T08:54:09.754Z,25.84
2024-02-18T08:55:10.032Z,25.85
2024-02-18T08:56:09.758Z,25.85
2024-02-18T08:57:09.762Z,25.84
2024-02-18T08:58:09.953Z,25.88
2024-02-18T08:59:09.862Z,25.87
2024-02-18T09:00:09.823Z,25.91
2024-02-18T09:01:09.953Z,25.91
2024-02-18T09:02:10.024Z,25.89
2024-02-18T09:03:09.879Z,25.91
2024-02-18T09:04:10.056Z,25.92
2024-02-18T09:05:10.494Z,25.91
2024-02-18T09:06:10.035Z,25.92
2024-02-18T09:07:10.055Z,25.95
2024-02-18T09:08:09.912Z,25.99
2024-02-18T09:09:09.982Z,25.96
2024-02-18T09:10:10.055Z,25.96
2024-02-18T09:11:10.017Z,25.98
2024-02-18T09:12:09.933Z,25.99
2024-02-18T09:13:10.063Z,25.98
2024-02-18T09:14:09.952Z,25.98
2024-02-18T09:15:10.245Z,25.96
2024-02-18T09:16:10.094Z,25.95
2024-02-18T09:17:09.933Z,25.92
2024-02-18T09:18:10.054Z,25.89
2024-02-18T09:19:10.056Z,25.92
2024-02-18T09:20:10.078Z,25.91
2024-02-18T09:21:10.013Z,25.91
2024-02-18T09:22:10.059Z,25.91
2024-02-18T09:23:09.995Z,25.92
2024-02-18T09:24:10.011Z,25.91
2024-02-18T09:25:09.988Z,25.93
2024-02-18T09:26:11.697Z,25.95
2024-02-18T09:27:09.975Z,25.93
2024-02-18T09:28:10.045Z,25.95
2024-02-18T09:29:10.052Z,25.96
2024-02-18T09:30:10.049Z,25.98
2024-02-18T09:31:10.230Z,25.95
2024-02-18T09:32:10.201Z,25.95
2024-02-18T09:33:10.062Z,25.99
2024-02-18T09:34:10.269Z,26.00
2024-02-18T09:35:10.129Z,26.03
2024-02-18T09:36:10.991Z,26.05
2024-02-18T09:37:10.011Z,26.05
2024-02-18T09:38:09.960Z,26.06
2024-02-18T09:39:10.093Z,26.08
2024-02-18T09:40:10.222Z,26.09
2024-02-18T09:41:10.213Z,26.06
2024-02-18T09:42:09.973Z,26.08
2024-02-18T09:43:09.993Z,26.06
2024-02-18T09:44:09.959Z,26.08
2024-02-18T09:45:09.986Z,26.08
2024-02-18T09:46:10.185Z,26.08
2024-02-18T09:47:09.973Z,26.08
2024-02-18T09:48:10.120Z,26.06
2024-02-18T09:49:10.106Z,26.03
2024-02-18T09:50:09.994Z,26.06
2024-02-18T09:51:10.075Z,26.06
2024-02-18T09:52:10.248Z,26.05
2024-02-18T09:53:10.169Z,26.02
2024-02-18T09:54:10.226Z,26.02
2024-02-18T09:55:10.292Z,26.02
2024-02-18T09:56:10.282Z,26.02
2024-02-18T09:57:10.257Z,26.00
2024-02-18T09:58:10.386Z,26.02
2024-02-18T09:59:10.261Z,25.99
2024-02-18T10:00:10.222Z,25.99
2024-02-18T10:01:10.438Z,25.98
2024-02-18T10:02:10.276Z,25.98
2024-02-18T10:03:10.470Z,25.98
2024-02-18T10:04:10.329Z,25.98
2024-02-18T10:05:10.926Z,25.96
2024-02-18T10:06:10.356Z,25.96
2024-02-18T10:07:10.232Z,25.96
2024-02-18T10:08:10.345Z,25.91
2024-02-18T10:09:10.322Z,25.95
2024-02-18T10:10:10.522Z,25.96
2024-02-18T10:11:10.540Z,25.95
2024-02-18T10:12:10.257Z,25.96
2024-02-18T10:13:10.428Z,25.95
2024-02-18T10:14:10.448Z,25.95
2024-02-18T10:15:10.274Z,25.92
2024-02-18T10:16:10.371Z,25.95
2024-02-18T10:17:10.455Z,25.93
2024-02-18T10:18:10.342Z,25.93
2024-02-18T10:19:10.412Z,25.93
2024-02-18T10:20:10.420Z,25.92
2024-02-18T10:21:10.492Z,25.91
2024-02-18T10:22:10.576Z,25.91
2024-02-18T10:23:10.468Z,25.91
2024-02-18T10:24:10.572Z,25.88
2024-02-18T10:25:10.612Z,25.88
2024-02-18T10:26:10.440Z,25.87
2024-02-18T10:27:10.589Z,25.87
2024-02-18T10:28:10.746Z,25.87
2024-02-18T10:29:10.541Z,25.89
2024-02-18T10:30:10.414Z,25.88
2024-02-18T10:31:10.670Z,25.88
2024-02-18T10:32:10.467Z,25.88
2024-02-18T10:33:10.589Z,25.89
2024-02-18T10:34:10.577Z,25.87
2024-02-18T10:35:10.702Z,25.87
2024-02-18T10:36:11.117Z,25.85
2024-02-18T10:37:10.648Z,25.88
2024-02-18T10:38:10.608Z,25.85
2024-02-18T10:39:10.614Z,25.87
2024-02-18T10:40:10.724Z,25.85
2024-02-18T10:41:10.678Z,25.88
2024-02-18T10:42:10.619Z,25.87
2024-02-18T10:43:11.044Z,25.85
2024-02-18T10:44:10.668Z,25.85
2024-02-18T10:45:10.630Z,25.82
2024-02-18T10:46:11.863Z,25.84
2024-02-18T10:47:10.618Z,25.84
2024-02-18T10:48:10.766Z,25.82
2024-02-18T10:49:10.847Z,25.84
2024-02-18T10:50:10.639Z,25.82
2024-02-18T10:51:10.660Z,25.84
2024-02-18T10:52:11.051Z,25.82
2024-02-18T10:53:10.709Z,25.84
2024-02-18T10:54:10.766Z,25.84
2024-02-18T10:55:10.970Z,25.85
2024-02-18T10:56:10.759Z,25.88
2024-02-18T10:57:10.762Z,25.88
2024-02-18T10:58:10.891Z,25.88
2024-02-18T10:59:10.878Z,25.89
2024-02-18T11:00:10.771Z,25.89
2024-02-18T11:01:10.854Z,25.89
2024-02-18T11:02:10.875Z,25.89
2024-02-18T11:03:10.863Z,25.92
2024-02-18T11:04:10.932Z,25.89
2024-02-18T11:05:10.859Z,25.95
2024-02-18T11:06:11.111Z,25.93
2024-02-18T11:07:11.035Z,25.95
2024-02-18T11:08:11.175Z,25.98
2024-02-18T11:09:10.893Z,25.98
2024-02-18T11:10:11.033Z,25.99
2024-02-18T11:11:11.384Z,25.98
2024-02-18T11:12:10.872Z,26.00
2024-02-18T11:13:11.004Z,26.00
2024-02-18T11:14:10.931Z,26.00
2024-02-18T11:15:11.007Z,26.02
2024-02-18T11:16:11.016Z,26.03
2024-02-18T11:17:10.956Z,26.02
2024-02-18T11:18:11.969Z,26.03
2024-02-18T11:19:11.219Z,26.05
2024-02-18T11:20:11.101Z,26.05
2024-02-18T11:21:11.230Z,26.06
2024-02-18T11:22:11.276Z,26.08
2024-02-18T11:23:11.085Z,26.06
2024-02-18T11:24:11.117Z,26.08
2024-02-18T11:25:11.238Z,26.08
2024-02-18T11:26:11.223Z,26.09
2024-02-18T11:27:11.217Z,26.09
2024-02-18T11:28:11.355Z,26.09
2024-02-18T11:29:11.303Z,26.08
2024-02-18T11:30:11.374Z,26.09
2024-02-18T11:31:11.589Z,26.09
2024-02-18T11:32:11.441Z,26.09
2024-02-18T11:33:11.639Z,26.09
2024-02-18T11:34:11.704Z,26.09
2024-02-18T11:35:11.614Z,26.10
2024-02-18T11:36:11.636Z,26.09
2024-02-18T11:37:11.827Z,26.09
2024-02-18T11:38:11.678Z,26.10
2024-02-18T11:39:11.754Z,26.09
2024-02-18T11:40:13.586Z,26.08
2024-02-18T11:41:12.022Z,26.06
2024-02-18T11:42:12.014Z,26.09
2024-02-18T11:43:12.189Z,26.06
2024-02-18T11:44:12.224Z,26.06
2024-02-18T11:45:12.195Z,26.08
2024-02-18T11:46:12.834Z,26.06
2024-02-18T11:47:12.344Z,26.05
2024-02-18T11:48:12.366Z,26.05
2024-02-18T11:49:12.695Z,26.02
2024-02-18T11:50:12.437Z,26.06
2024-02-18T11:51:12.529Z,26.05
2024-02-18T11:52:12.598Z,26.05
2024-02-18T11:53:12.720Z,26.06
2024-02-18T11:54:12.645Z,26.05
2024-02-18T11:55:12.801Z,26.05
2024-02-18T11:56:12.767Z,26.02
2024-02-18T11:57:12.826Z,26.03
2024-02-18T11:58:12.970Z,26.03
2024-02-18T11:59:12.959Z,26.05
2024-02-18T12:00:13.029Z,26.02
2024-02-18T12:01:13.158Z,26.03
2024-02-18T12:02:13.205Z,26.03
2024-02-18T12:03:13.280Z,26.02
2024-02-18T12:04:13.314Z,26.02
2024-02-18T12:05:13.424Z,26.03
2024-02-18T12:06:13.398Z,26.03
2024-02-18T12:07:13.483Z,26.02
2024-02-18T12:08:13.496Z,26.03
2024-02-18T12:09:13.521Z,26.02
2024-02-18T12:10:13.649Z,26.02
2024-02-18T12:11:13.691Z,26.03
2024-02-18T12:12:13.726Z,26.02
2024-02-18T12:13:13.809Z,26.02
2024-02-18T12:14:13.842Z,26.05
2024-02-18T12:15:13.883Z,26.05
2024-02-18T12:16:14.361Z,26.02
2024-02-18T12:17:14.061Z,26.03
2024-02-18T12:18:14.204Z,26.02
2024-02-18T12:19:14.297Z,26.02
2024-02-18T12:20:14.231Z,26.00
2024-02-18T12:21:14.306Z,26.00
2024-02-18T12:22:14.482Z,26.02
2024-02-18T12:23:14.461Z,26.00
2024-02-18T12:24:14.518Z,26.00
2024-02-18T12:25:14.715Z,26.02
2024-02-18T12:26:14.902Z,26.03
2024-02-18T12:27:14.734Z,26.00
2024-02-18T12:28:14.863Z,26.02
2024-02-18T12:29:14.855Z,26.00
2024-02-18T12:30:14.920Z,26.00
2024-02-18T12:31:15.014Z,25.99
2024-02-18T12:32:15.026Z,25.99
2024-02-18T12:33:15.200Z,25.98
2024-02-18T12:34:15.256Z,26.00
2024-02-18T12:35:15.429Z,25.99
2024-02-18T12:36:15.275Z,26.00
2024-02-18T12:37:27.060Z,26.00
2024-02-18T12:38:17.254Z,26.00
2024-02-18T12:39:15.367Z,25.99
2024-02-18T12:40:16.425Z,25.98
2024-02-18T12:41:15.365Z,25.99
2024-02-18T12:42:15.315Z,25.98
2024-02-18T12:43:43.710Z,25.98
2024-02-18T12:44:54.530Z,26.00
2024-02-18T12:45:40.366Z,25.98
2024-02-18T12:46:16.629Z,25.96
2024-02-18T12:47:15.457Z,25.98
2024-02-18T12:48:16.353Z,25.98
2024-02-18T12:49:15.454Z,25.96
2024-02-18T12:50:15.490Z,25.96
2024-02-18T12:51:16.120Z,25.95
2024-02-18T12:52:15.414Z,25.95
2024-02-18T12:53:15.347Z,25.98